Eglon, Washington
Current Conditions -  °F | °C
As of 10:53 AM on Thursday 23 Oct 2014 (Local Time) from KPAE Reporting Station
Broken Clouds Broken Clouds  
Wind Chill: 52°   Ceiling: 7000
Heat Index: 52°   Visibility: 10mi
Dew Point: 48°   Wind: 20mph
Humidity: 86%   Direction: 170°S
Pressure: 29.76"   Gusts: NA
Location:  47.8143°N, 122.527°W
Report Text: KPAE 231753Z 17017KT 10SM SCT055 BKN070 BKN090 11/09 A2976 RMK AO2 RAE50 SLP078 P0000 60007 T01110089 10111 20100 51015
Loading
Personal Weather Stations






























Interactive Weather Map
Tropical Storm Tracking
New forecast layout! Learn more

10-Day Weather Forecast

Advertisements
Track Severe Weather on mobile